地図

経路データ

SID SEASON NUMBER BASIN SUBBASIN NAME ISO_TIME NATURE LAT LON WMO_WIND WMO_PRES WMO_AGENCY TRACK_TYPE DIST2LAND LANDFALL IFLAG USA_AGENCY USA_ATCF_ID USA_LAT USA_LON USA_RECORD USA_STATUS USA_WIND USA_PRES USA_SSHS USA_R34_NE USA_R34_SE USA_R34_SW USA_R34_NW USA_R50_NE USA_R50_SE USA_R50_SW USA_R50_NW USA_R64_NE USA_R64_SE USA_R64_SW USA_R64_NW USA_POCI USA_ROCI USA_RMW USA_EYE TOKYO_LAT TOKYO_LON TOKYO_GRADE TOKYO_WIND TOKYO_PRES TOKYO_R50_DIR TOKYO_R50_LONG TOKYO_R50_SHORT TOKYO_R30_DIR TOKYO_R30_LONG TOKYO_R30_SHORT TOKYO_LAND CMA_LAT CMA_LON CMA_CAT CMA_WIND CMA_PRES HKO_LAT HKO_LON HKO_CAT HKO_WIND HKO_PRES NEWDELHI_LAT NEWDELHI_LON NEWDELHI_GRADE NEWDELHI_WIND NEWDELHI_PRES NEWDELHI_CI NEWDELHI_DP NEWDELHI_POCI REUNION_LAT REUNION_LON REUNION_TYPE REUNION_WIND REUNION_PRES REUNION_TNUM REUNION_CI REUNION_RMW REUNION_R34_NE REUNION_R34_SE REUNION_R34_SW REUNION_R34_NW REUNION_R50_NE REUNION_R50_SE REUNION_R50_SW REUNION_R50_NW REUNION_R64_NE REUNION_R64_SE REUNION_R64_SW REUNION_R64_NW BOM_LAT BOM_LON BOM_TYPE BOM_WIND BOM_PRES BOM_TNUM BOM_CI BOM_RMW BOM_R34_NE BOM_R34_SE BOM_R34_SW BOM_R34_NW BOM_R50_NE BOM_R50_SE BOM_R50_SW BOM_R50_NW BOM_R64_NE BOM_R64_SE BOM_R64_SW BOM_R64_NW BOM_ROCI BOM_POCI BOM_EYE BOM_POS_METHOD BOM_PRES_METHOD NADI_LAT NADI_LON NADI_CAT NADI_WIND NADI_PRES WELLINGTON_LAT WELLINGTON_LON WELLINGTON_WIND WELLINGTON_PRES DS824_LAT DS824_LON DS824_STAGE DS824_WIND DS824_PRES TD9636_LAT TD9636_LON TD9636_STAGE TD9636_WIND TD9636_PRES TD9635_LAT TD9635_LON TD9635_WIND TD9635_PRES TD9635_ROCI NEUMANN_LAT NEUMANN_LON NEUMANN_CLASS NEUMANN_WIND NEUMANN_PRES MLC_LAT MLC_LON MLC_CLASS MLC_WIND MLC_PRES USA_GUST BOM_GUST BOM_GUST_PER REUNION_GUST REUNION_GUST_PER USA_SEAHGT USA_SEARAD_NE USA_SEARAD_SE USA_SEARAD_SW USA_SEARAD_NW STORM_SPEED STORM_DIR
1941228N22130 1941 46 WP MM NOT_NAMED 1941-08-15 21:00:00 NR 21.5000 130.400 main 914 881 __________O___ -1 21.5000 130.400 4 6 257
1941228N22130 1941 46 WP MM NOT_NAMED 1941-08-16 00:00:00 NR 21.4380 130.112 main 881 862 __________P___ -1 21.4380 130.112 4 5 257
1941228N22130 1941 46 WP MM NOT_NAMED 1941-08-16 03:00:00 NR 21.3806 129.850 main 852 829 __________P___ -1 21.3806 129.850 4 5 257
1941228N22130 1941 46 WP MM NOT_NAMED 1941-08-16 06:00:00 NR 21.3328 129.637 main 829 819 __________P___ -1 21.3328 129.637 4 3 256
1941228N22130 1941 46 WP MM NOT_NAMED 1941-08-16 09:00:00 NR 21.3000 129.500 main 819 819 __________O___ -1 21.3000 129.500 4 2 254
1941228N22130 1941 46 WP MM NOT_NAMED 1941-08-16 12:00:00 NR 21.2854 129.452 main 819 810 __________P___ -1 21.2854 129.452 4 0 247
1941228N22130 1941 46 WP MM NOT_NAMED 1941-08-16 15:00:00 NR 21.2848 129.463 main 819 819 __________P___ -1 21.2848 129.463 4 0 81
1941228N22130 1941 46 WP MM NOT_NAMED 1941-08-16 18:00:00 NR 21.2917 129.492 main 819 819 __________P___ -1 21.2917 129.492 4 0 67
1941228N22130 1941 46 WP MM NOT_NAMED 1941-08-16 21:00:00 NR 21.3000 129.500 main 819 810 __________O___ -1 21.3000 129.500 4 1 274
1941228N22130 1941 46 WP MM NOT_NAMED 1941-08-17 00:00:00 NR 21.2960 129.429 main 810 800 __________P___ -1 21.2960 129.429 4 2 267
1941228N22130 1941 46 WP MM NOT_NAMED 1941-08-17 03:00:00 NR 21.2925 129.330 main 800 791 __________P___ -1 21.2925 129.330 4 2 269
1941228N22130 1941 46 WP MM NOT_NAMED 1941-08-17 06:00:00 NR 21.2928 129.216 main 791 781 __________P___ -1 21.2928 129.216 4 2 272
1941228N22130 1941 46 WP MM NOT_NAMED 1941-08-17 09:00:00 NR 21.3000 129.100 main 781 772 __________O___ -1 21.3000 129.100 4 2 276
1941228N22130 1941 46 WP MM NOT_NAMED 1941-08-17 12:00:00 NR 21.3137 129.008 main 772 762 __________P___ -1 21.3137 129.008 4 2 281
1941228N22130 1941 46 WP MM NOT_NAMED 1941-08-17 15:00:00 NR 21.3349 128.915 main 762 757 __________P___ -1 21.3349 128.915 4 2 285
1941228N22130 1941 46 WP MM NOT_NAMED 1941-08-17 18:00:00 NR 21.3637 128.814 main 757 748 __________P___ -1 21.3637 128.814 4 2 288
1941228N22130 1941 46 WP MM NOT_NAMED 1941-08-17 21:00:00 NR 21.4000 128.700 main 748 739 __________O___ -1 21.4000 128.700 4 2 282
1941228N22130 1941 46 WP MM NOT_NAMED 1941-08-18 00:00:00 NR 21.4144 128.556 main 739 720 __________P___ -1 21.4144 128.556 4 3 278
1941228N22130 1941 46 WP MM NOT_NAMED 1941-08-18 03:00:00 NR 21.4401 128.400 main 720 716 __________P___ -1 21.4401 128.400 4 3 286
1941228N22130 1941 46 WP MM NOT_NAMED 1941-08-18 06:00:00 NR 21.4957 128.244 main 707 703 __________P___ -1 21.4957 128.244 4 3 300
1941228N22130 1941 46 WP MM NOT_NAMED 1941-08-18 09:00:00 NR 21.6000 128.100 main 703 692 __________O___ -1 21.6000 128.100 4 4 318
1941228N22130 1941 46 WP MM NOT_NAMED 1941-08-18 12:00:00 NR 21.7706 127.974 main 692 673 __________P___ -1 21.7706 127.974 4 5 331
1941228N22130 1941 46 WP MM NOT_NAMED 1941-08-18 15:00:00 NR 21.9900 127.863 main 673 654 __________P___ -1 21.9900 127.863 4 5 338
1941228N22130 1941 46 WP MM NOT_NAMED 1941-08-18 18:00:00 NR 22.2394 127.770 main 654 631 __________P___ -1 22.2394 127.770 4 5 344
1941228N22130 1941 46 WP MM NOT_NAMED 1941-08-18 21:00:00 NR 22.5000 127.700 main 631 614 __________O___ -1 22.5000 127.700 4 5 347
1941228N22130 1941 46 WP MM NOT_NAMED 1941-08-19 00:00:00 NR 22.7428 127.641 main 614 603 __________P___ -1 22.7428 127.641 4 5 350
1941228N22130 1941 46 WP MM NOT_NAMED 1941-08-19 03:00:00 NR 22.9924 127.605 main 603 597 __________P___ -1 22.9924 127.605 4 5 355
1941228N22130 1941 46 WP MM NOT_NAMED 1941-08-19 06:00:00 NR 23.2459 127.591 main 597 589 __________P___ -1 23.2459 127.591 4 5 357
1941228N22130 1941 46 WP MM NOT_NAMED 1941-08-19 09:00:00 NR 23.5000 127.600 main 589 585 __________O___ -1 23.5000 127.600 4 5 6
1941228N22130 1941 46 WP MM NOT_NAMED 1941-08-19 12:00:00 NR 23.7541 127.648 main 582 582 __________P___ -1 23.7541 127.648 4 5 12
1941228N22130 1941 46 WP MM NOT_NAMED 1941-08-19 15:00:00 NR 24.0075 127.714 main 587 584 __________P___ -1 24.0075 127.714 4 5 13
1941228N22130 1941 46 WP MM NOT_NAMED 1941-08-19 18:00:00 NR 24.2572 127.773 main 590 587 __________P___ -1 24.2572 127.773 4 5 9
1941228N22130 1941 46 WP MM NOT_NAMED 1941-08-19 21:00:00 NR 24.5000 127.800 main 587 585 __________O___ -1 24.5000 127.800 4 5 0
1941228N22130 1941 46 WP MM NOT_NAMED 1941-08-20 00:00:00 NR 24.7403 127.765 main 585 573 __________P___ -1 24.7403 127.765 4 5 348
1941228N22130 1941 46 WP MM NOT_NAMED 1941-08-20 03:00:00 NR 24.9725 127.695 main 573 563 __________P___ -1 24.9725 127.695 4 5 342
1941228N22130 1941 46 WP MM NOT_NAMED 1941-08-20 06:00:00 NR 25.1934 127.603 main 563 554 __________P___ -1 25.1934 127.603 4 5 337
1941228N22130 1941 46 WP MM NOT_NAMED 1941-08-20 09:00:00 NR 25.4000 127.500 main 554 545 __________O___ -1 25.4000 127.500 4 4 334
1941228N22130 1941 46 WP MM NOT_NAMED 1941-08-20 12:00:00 NR 25.5650 127.403 main 546 537 __________P___ -1 25.5650 127.403 4 4 331
1941228N22130 1941 46 WP MM NOT_NAMED 1941-08-20 15:00:00 NR 25.7200 127.300 main 537 529 __________P___ -1 25.7200 127.300 4 4 331
1941228N22130 1941 46 WP MM NOT_NAMED 1941-08-20 18:00:00 NR 25.8900 127.197 main 531 523 __________P___ -1 25.8900 127.197 4 4 335
1941228N22130 1941 46 WP MM NOT_NAMED 1941-08-20 21:00:00 NR 26.1000 127.100 main 525 521 __________O___ -1 26.1000 127.100 4 5 342
1941228N22130 1941 46 WP MM NOT_NAMED 1941-08-21 00:00:00 NR 26.3940 127.014 main 524 524 __________P___ -1 26.3940 127.014 4 6 347
1941228N22130 1941 46 WP MM NOT_NAMED 1941-08-21 03:00:00 NR 26.7275 126.935 main 525 525 __________P___ -1 26.7275 126.935 4 7 349
1941228N22130 1941 46 WP MM NOT_NAMED 1941-08-21 06:00:00 NR 27.0722 126.864 main 534 510 __________P___ -1 27.0722 126.864 4 7 350
1941228N22130 1941 46 WP MM NOT_NAMED 1941-08-21 09:00:00 NR 27.4000 126.800 main 510 501 __________O___ -1 27.4000 126.800 4 5 349
1941228N22130 1941 46 WP MM NOT_NAMED 1941-08-21 12:00:00 NR 27.6025 126.754 main 501 484 __________P___ -1 27.6025 126.754 4 4 348
1941228N22130 1941 46 WP MM NOT_NAMED 1941-08-21 15:00:00 NR 27.7950 126.714 main 484 477 __________P___ -1 27.7950 126.714 4 4 350
1941228N22130 1941 46 WP MM NOT_NAMED 1941-08-21 18:00:00 NR 28.0400 126.666 main 477 456 __________P___ -1 28.0400 126.666 4 6 351
1941228N22130 1941 46 WP MM NOT_NAMED 1941-08-21 21:00:00 NR 28.4000 126.600 main 456 438 __________O___ -1 28.4000 126.600 4 9 349
1941228N22130 1941 46 WP MM NOT_NAMED 1941-08-22 00:00:00 NR 28.9409 126.478 main 438 401 __________P___ -1 28.9409 126.478 4 12 349
1941228N22130 1941 46 WP MM NOT_NAMED 1941-08-22 03:00:00 NR 29.6005 126.337 main 401 323 __________P___ -1 29.6005 126.337 4 14 350
1941228N22130 1941 46 WP MM NOT_NAMED 1941-08-22 06:00:00 NR 30.3347 126.203 main 323 234 __________P___ -1 30.3347 126.203 4 15 352
1941228N22130 1941 46 WP MM NOT_NAMED 1941-08-22 09:00:00 NR 31.1000 126.100 main 234 157 __________O___ -1 31.1000 126.100 4 15 356
1941228N22130 1941 46 WP MM NOT_NAMED 1941-08-22 12:00:00 NR 31.8485 126.094 main 157 69 __________P___ -1 31.8485 126.094 4 15 1
1941228N22130 1941 46 WP MM NOT_NAMED 1941-08-22 15:00:00 NR 32.6147 126.118 main 69 9 __________P___ -1 32.6147 126.118 4 15 2
1941228N22130 1941 46 WP MM NOT_NAMED 1941-08-22 18:00:00 NR 33.3735 126.134 main 14 14 __________P___ -1 33.3735 126.134 4 15 0
1941228N22130 1941 46 WP MM NOT_NAMED 1941-08-22 21:00:00 NR 34.1000 126.100 main 42 27 __________O___ -1 34.1000 126.100 4 13 354
1941228N22130 1941 46 WP MM NOT_NAMED 1941-08-23 00:00:00 NR 34.6960 125.972 main 27 27 __________P___ -1 34.6960 125.972 4 12 348
1941228N22130 1941 46 WP MM NOT_NAMED 1941-08-23 03:00:00 NR 35.2677 125.787 main 42 42 __________P___ -1 35.2677 125.787 4 12 344
1941228N22130 1941 46 WP MM NOT_NAMED 1941-08-23 06:00:00 NR 35.8804 125.558 main 83 70 __________P___ -1 35.8804 125.558 4 14 344
1941228N22130 1941 46 WP MM NOT_NAMED 1941-08-23 09:00:00 NR 36.6000 125.300 main 72 34 __________O___ -1 36.6000 125.300 7 18 345
1941228N22130 1941 46 WP MM NOT_NAMED 1941-08-23 12:00:00 NR 37.6081 124.968 main 28 0 __________P___ -1 37.6081 124.968 7 22 346
1941228N22130 1941 46 WP MM NOT_NAMED 1941-08-23 15:00:00 NR 38.7111 124.615 main 41 14 __________P___ -1 38.7111 124.615 7 22 347
1941228N22130 1941 46 WP MM NOT_NAMED 1941-08-23 18:00:00 NR 39.7833 124.303 main 8 0 __________P___ -1 39.7833 124.303 7 20 349
1941228N22130 1941 46 WP MM NOT_NAMED 1941-08-23 21:00:00 NR 40.7000 124.100 main 0 0 __________O___ -1 40.7000 124.100 7 16 354
1941228N22130 1941 46 WP MM NOT_NAMED 1941-08-24 00:00:00 NR 41.3251 124.088 main 0 0 __________P___ -1 41.3251 124.088 7 11 4
1941228N22130 1941 46 WP MM NOT_NAMED 1941-08-24 03:00:00 NR 41.7816 124.200 main 0 0 __________P___ -1 41.7816 124.200 7 8 16
1941228N22130 1941 46 WP MM NOT_NAMED 1941-08-24 06:00:00 NR 42.1223 124.387 main 0 0 __________P___ -1 42.1223 124.387 7 7 26
1941228N22130 1941 46 WP MM NOT_NAMED 1941-08-24 09:00:00 NR 42.4000 124.600 main 0 0 __________O___ -1 42.4000 124.600 7 6 29
1941228N22130 1941 46 WP MM NOT_NAMED 1941-08-24 12:00:00 NR 42.6590 124.797 main 0 0 __________P___ -1 42.6590 124.797 7 6 28
1941228N22130 1941 46 WP MM NOT_NAMED 1941-08-24 15:00:00 NR 42.9104 124.975 main 0 0 __________P___ -1 42.9104 124.975 7 6 27
1941228N22130 1941 46 WP MM NOT_NAMED 1941-08-24 18:00:00 NR 43.1566 125.140 main 0 0 __________P___ -1 43.1566 125.140 7 5 26
1941228N22130 1941 46 WP MM NOT_NAMED 1941-08-24 21:00:00 NR 43.4000 125.300 main 0 __________O___ -1 43.4000 125.300 7 5 26

デジタル台風データ・検索

IBTrACS Databaseについて

本データベースは、米国NOAAが公開する1842年以降の世界の熱帯低気圧のベストトラックデータアーカイブInternational Best Track Archive for Climate Stewardship (IBTrACS)を、ウェブで閲覧しやすい形式に変換したものです。

最終更新日:2021-10-27